Time;durP1;ratioP1;P1;durP2;ratioP2;P2;SDS_P1;SDS_P2;PMS_P1;PMS_P2;Temp;Humidity;BMP_temperature;BMP_pressure;BME280_temperature;BME280_humidity;BME280_pressure;Samples;Min_cycle;Max_cycle;Signal;HPM_P1;HPM_P2
2023/10/01 00:00:26;;;;;;;13.77;7.27;;;;;;;11.24;100.00;99155.44;5071980;28;20294;-80
2023/10/01 00:02:53;;;;;;;12.13;6.73;;;;;;;11.21;100.00;99150.31;5072920;28;20218;-78
2023/10/01 00:05:22;;;;;;;11.40;7.17;;;;;;;11.20;100.00;99148.63;5072876;28;20211;-79
2023/10/01 00:07:51;;;;;;;13.27;7.13;;;;;;;11.18;100.00;99145.22;5072791;28;20341;-80
2023/10/01 00:10:18;;;;;;;10.47;6.87;;;;;;;11.16;100.00;99147.06;5072828;28;20206;-78
2023/10/01 00:12:46;;;;;;;10.70;6.90;;;;;;;11.11;100.00;99157.03;5072172;28;20741;-78
2023/10/01 00:15:15;;;;;;;13.23;7.17;;;;;;;11.05;100.00;99150.31;5072612;28;20211;-78
2023/10/01 00:17:44;;;;;;;12.53;7.83;;;;;;;11.04;100.00;99139.81;5072604;28;20215;-79
2023/10/01 00:20:17;;;;;;;13.53;7.07;;;;;;;10.99;100.00;99144.50;5072381;28;20637;-78
2023/10/01 00:22:45;;;;;;;13.47;6.77;;;;;;;10.97;100.00;99136.66;5072290;28;20354;-79
2023/10/01 00:25:12;;;;;;;11.23;6.60;;;;;;;11.00;100.00;99130.34;5072714;28;20221;-79
2023/10/01 00:27:39;;;;;;;11.97;6.60;;;;;;;10.99;100.00;99133.91;5072662;28;20583;-78
2023/10/01 00:30:09;;;;;;;11.20;6.60;;;;;;;10.95;100.00;99132.41;5072900;28;20294;-79
2023/10/01 00:32:36;;;;;;;11.83;6.67;;;;;;;10.92;100.00;99137.84;5072044;28;20231;-78
2023/10/01 00:35:05;;;;;;;10.50;6.47;;;;;;;10.90;100.00;99131.78;5072355;28;20218;-79
2023/10/01 00:37:33;;;;;;;10.70;6.03;;;;;;;10.88;100.00;99131.84;5072139;28;20218;-78
2023/10/01 00:40:05;;;;;;;12.23;6.57;;;;;;;10.87;100.00;99137.22;5072067;28;20224;-78
2023/10/01 00:42:34;;;;;;;14.20;7.00;;;;;;;10.83;100.00;99136.53;5072167;28;20240;-78
2023/10/01 00:45:00;;;;;;;12.37;6.60;;;;;;;10.79;100.00;99140.31;5072100;28;20265;-78
2023/10/01 00:47:28;;;;;;;12.27;6.83;;;;;;;10.83;100.00;99133.91;5071871;28;20223;-78
2023/10/01 00:49:57;;;;;;;12.77;7.00;;;;;;;10.87;100.00;99135.44;5071765;28;20214;-78
2023/10/01 00:52:24;;;;;;;12.67;7.47;;;;;;;10.92;100.00;99137.84;5071214;28;20736;-78
2023/10/01 00:54:51;;;;;;;12.17;7.70;;;;;;;10.95;100.00;99142.97;5071766;28;20422;-78
2023/10/01 00:57:21;;;;;;;14.93;7.67;;;;;;;10.99;100.00;99134.78;5071634;28;20203;-78
2023/10/01 00:59:48;;;;;;;16.03;8.03;;;;;;;10.99;100.00;99131.28;5071410;28;20230;-79
2023/10/01 01:02:16;;;;;;;12.20;7.57;;;;;;;11.03;100.00;99130.16;5071319;28;20236;-79
2023/10/01 01:04:45;;;;;;;14.57;7.83;;;;;;;11.10;100.00;99137.69;5071552;28;20209;-78
2023/10/01 01:07:19;;;;;;;11.73;7.10;;;;;;;11.12;100.00;99130.50;5071644;28;20735;-79
2023/10/01 01:09:46;;;;;;;13.67;7.53;;;;;;;11.14;100.00;99143.66;5071679;28;20280;-78
2023/10/01 01:12:13;;;;;;;12.70;7.80;;;;;;;11.17;100.00;99132.91;5074557;28;20234;-78
2023/10/01 01:14:44;;;;;;;14.20;6.93;;;;;;;11.18;100.00;99140.75;5074943;28;20211;-78
2023/10/01 01:17:10;;;;;;;13.50;7.53;;;;;;;11.17;100.00;99143.47;5074848;28;20598;-78
2023/10/01 01:19:37;;;;;;;14.03;7.73;;;;;;;11.17;100.00;99132.91;5075009;28;20259;-78
2023/10/01 01:22:04;;;;;;;17.23;8.33;;;;;;;11.14;100.00;99133.09;5074496;28;20227;-79
2023/10/01 01:24:31;;;;;;;15.83;8.57;;;;;;;11.17;100.00;99122.31;5074964;28;20248;-78
2023/10/01 01:27:00;;;;;;;15.67;8.03;;;;;;;11.13;100.00;99126.09;5074676;28;20230;-78
2023/10/01 01:29:34;;;;;;;13.57;8.30;;;;;;;11.16;100.00;99124.13;5074946;28;20273;-78
2023/10/01 01:32:13;;;;;;;12.63;6.87;;;;;;;11.16;100.00;99112.66;5074761;28;20227;-78
2023/10/01 01:34:40;;;;;;;12.00;7.57;;;;;;;11.15;100.00;99118.91;5074769;28;20280;-78
2023/10/01 01:37:08;;;;;;;13.13;7.17;;;;;;;11.13;100.00;99126.91;5074943;28;20215;-78
2023/10/01 01:39:45;;;;;;;15.20;7.73;;;;;;;11.15;100.00;99124.19;5074552;28;20309;-78
2023/10/01 01:42:12;;;;;;;14.43;7.77;;;;;;;11.14;100.00;99123.34;5074161;28;20532;-78
2023/10/01 01:44:39;;;;;;;13.60;7.73;;;;;;;11.17;100.00;99127.59;5074360;28;20230;-78
2023/10/01 01:47:07;;;;;;;13.20;7.43;;;;;;;11.16;100.00;99120.59;5074562;28;20234;-78
2023/10/01 01:49:34;;;;;;;13.53;8.13;;;;;;;11.13;100.00;99128.72;5074490;28;20258;-78
2023/10/01 01:52:03;;;;;;;11.50;7.50;;;;;;;11.13;100.00;99115.50;5074233;28;20231;-78
2023/10/01 01:54:31;;;;;;;12.50;7.80;;;;;;;11.08;100.00;99112.25;5074127;28;20294;-78
2023/10/01 01:56:58;;;;;;;16.87;8.23;;;;;;;11.05;100.00;99107.13;5074233;28;20207;-78
2023/10/01 01:59:27;;;;;;;14.27;7.93;;;;;;;11.06;100.00;99103.56;5074179;28;20227;-78
2023/10/01 02:01:55;;;;;;;14.13;7.50;;;;;;;10.98;100.00;99095.19;5074059;28;20223;-78
2023/10/01 02:04:22;;;;;;;13.37;7.60;;;;;;;10.93;100.00;99102.50;5074424;28;20237;-78
2023/10/01 02:06:50;;;;;;;16.90;8.00;;;;;;;10.86;100.00;99101.16;5074105;28;20559;-78
2023/10/01 02:09:19;;;;;;;13.67;7.33;;;;;;;10.76;100.00;99111.38;5073817;28;20681;-78
2023/10/01 02:11:47;;;;;;;13.23;7.60;;;;;;;10.67;100.00;99106.59;5073659;28;20237;-78
2023/10/01 02:17:02;;;;;;;11.93;7.47;;;;;;;10.53;100.00;99101.19;5073497;28;20290;-78
2023/10/01 02:19:29;;;;;;;13.00;7.10;;;;;;;10.48;100.00;99099.72;5073777;28;20765;-78
2023/10/01 02:22:03;;;;;;;11.53;6.93;;;;;;;10.45;100.00;99100.75;5072859;28;20260;-78
2023/10/01 02:24:44;;;;;;;12.00;6.77;;;;;;;10.45;100.00;99106.03;5073675;28;20365;-78
2023/10/01 02:27:11;;;;;;;10.23;5.87;;;;;;;10.40;100.00;99101.94;5073793;28;20214;-78
2023/10/01 02:30:10;;;;;;;12.23;6.90;;;;;;;10.33;100.00;99095.28;5073670;28;20222;-78
2023/10/01 02:32:32;;;;;;;12.07;6.67;;;;;;;10.28;100.00;99105.22;5072822;28;20223;-78
2023/10/01 02:34:59;;;;;;;11.27;6.20;;;;;;;10.23;100.00;99099.31;5073691;28;20207;-78
2023/10/01 02:37:29;;;;;;;13.60;6.57;;;;;;;10.15;100.00;99096.25;5073547;28;20215;-78
2023/10/01 02:39:56;;;;;;;12.83;7.27;;;;;;;10.16;100.00;99088.22;5073875;28;20237;-78
2023/10/01 02:42:26;;;;;;;11.70;6.60;;;;;;;10.17;100.00;99089.94;5074088;28;20256;-79
2023/10/01 02:44:53;;;;;;;11.13;6.63;;;;;;;10.15;100.00;99080.41;5074080;28;20220;-78
2023/10/01 02:47:22;;;;;;;14.23;6.93;;;;;;;10.12;100.00;99072.63;5074266;28;20287;-78
2023/10/01 02:49:51;;;;;;;11.50;6.63;;;;;;;10.08;100.00;99076.34;5073941;28;20270;-78
2023/10/01 02:52:19;;;;;;;14.03;7.53;;;;;;;10.10;100.00;99083.25;5073248;28;20235;-78
2023/10/01 02:54:47;;;;;;;11.97;7.03;;;;;;;10.11;100.00;99089.41;5073521;28;20214;-78
2023/10/01 02:57:23;;;;;;;10.47;6.17;;;;;;;10.04;100.00;99083.56;5073472;28;20207;-78
2023/10/01 03:02:33;;;;;;;11.73;6.80;;;;;;;10.06;100.00;99080.84;5073107;28;20234;-78
2023/10/01 03:05:05;;;;;;;14.13;6.73;;;;;;;10.04;100.00;99088.03;5073536;28;20222;-78
2023/10/01 03:07:38;;;;;;;11.27;6.47;;;;;;;10.00;100.00;99086.41;5073498;28;20233;-78
2023/10/01 03:10:12;;;;;;;11.47;6.87;;;;;;;9.97;100.00;99084.78;5073506;28;20208;-78
2023/10/01 03:12:40;;;;;;;13.10;7.20;;;;;;;9.98;100.00;99093.59;5073343;28;20258;-78
2023/10/01 03:15:23;;;;;;;11.33;6.63;;;;;;;9.97;100.00;99087.44;5073322;28;20741;-78
2023/10/01 03:17:57;;;;;;;12.27;6.77;;;;;;;10.01;100.00;99082.84;5073298;28;20309;-78
2023/10/01 03:23:05;;;;;;;15.67;7.43;;;;;;;10.06;100.00;99080.84;5072599;28;20208;-78
2023/10/01 03:25:40;;;;;;;13.30;7.43;;;;;;;10.08;100.00;99084.25;5072934;28;20227;-78
2023/10/01 03:28:11;;;;;;;13.50;7.23;;;;;;;10.02;100.00;99082.78;5073274;28;20673;-78
2023/10/01 03:30:40;;;;;;;13.37;8.13;;;;;;;9.98;100.00;99089.13;5072868;28;20666;-78
2023/10/01 03:33:15;;;;;;;10.80;6.60;;;;;;;9.93;100.00;99085.91;5073084;28;20237;-79
2023/10/01 03:35:45;;;;;;;12.10;6.17;;;;;;;9.89;100.00;99086.13;5073291;28;20256;-79
2023/10/01 03:38:14;;;;;;;12.77;6.93;;;;;;;9.79;100.00;99082.25;5072977;28;20214;-79
2023/10/01 03:40:57;;;;;;;12.83;6.80;;;;;;;9.78;100.00;99081.38;5072392;28;20258;-79
2023/10/01 03:43:31;;;;;;;11.80;6.13;;;;;;;9.80;100.00;99083.97;5073092;28;20254;-79
2023/10/01 03:46:06;;;;;;;12.90;6.67;;;;;;;9.82;100.00;99082.09;5072669;28;20203;-79
2023/10/01 03:48:57;;;;;;;11.63;5.87;;;;;;;9.72;100.00;99080.88;5072803;28;20206;-79
2023/10/01 03:51:28;;;;;;;10.87;6.23;;;;;;;9.69;100.00;99075.72;5071849;28;20243;-79
2023/10/01 03:53:59;;;;;;;11.90;6.87;;;;;;;9.72;100.00;99078.22;5072435;28;20204;-79
2023/10/01 03:56:29;;;;;;;10.77;6.70;;;;;;;9.71;100.00;99079.13;5072470;28;20216;-79
2023/10/01 03:58:56;;;;;;;11.40;6.50;;;;;;;9.72;100.00;99076.44;5072269;28;20214;-79
2023/10/01 04:01:33;;;;;;;14.00;8.03;;;;;;;9.75;100.00;99081.56;5071455;28;20236;-79
2023/10/01 04:04:01;;;;;;;13.63;7.03;;;;;;;9.78;100.00;99075.28;5072056;28;20595;-79
2023/10/01 04:06:30;;;;;;;13.33;7.53;;;;;;;9.83;100.00;99067.94;5072165;28;20210;-79
2023/10/01 04:09:00;;;;;;;12.97;7.43;;;;;;;9.92;100.00;99067.50;5072642;28;20199;-79
2023/10/01 04:14:10;;;;;;;15.43;8.30;;;;;;;10.01;100.00;99062.59;5072054;28;20200;-79
2023/10/01 04:16:36;;;;;;;16.93;8.20;;;;;;;10.03;100.00;99065.16;5071961;28;20213;-79
2023/10/01 04:19:10;;;;;;;15.90;8.13;;;;;;;10.04;100.00;99061.59;5072361;28;20208;-79
2023/10/01 04:21:36;;;;;;;13.83;7.57;;;;;;;10.04;100.00;99053.69;5071468;28;20257;-79
2023/10/01 04:24:02;;;;;;;14.53;8.07;;;;;;;10.04;100.00;99053.69;5071723;28;20615;-78
2023/10/01 04:26:31;;;;;;;12.87;7.80;;;;;;;10.02;100.00;99064.28;5072078;28;20716;-79
2023/10/01 04:28:59;;;;;;;13.33;7.47;;;;;;;10.04;100.00;99066.88;5072002;28;20214;-79
2023/10/01 04:34:17;;;;;;;12.17;7.43;;;;;;;10.08;100.00;99064.00;5050876;28;20195;-79
2023/10/01 04:36:50;;;;;;;16.30;7.97;;;;;;;10.06;100.00;99059.72;5071789;28;20212;-79
2023/10/01 04:39:17;;;;;;;15.60;7.70;;;;;;;10.04;100.00;99057.16;5071645;28;20225;-79
2023/10/01 04:41:45;;;;;;;15.67;8.60;;;;;;;10.05;100.00;99061.53;5071291;28;20644;-79
2023/10/01 04:44:19;;;;;;;13.93;8.17;;;;;;;10.04;100.00;99056.31;5071800;28;20310;-79
2023/10/01 04:46:46;;;;;;;16.93;8.67;;;;;;;10.04;100.00;99045.75;5074384;28;20208;-79
2023/10/01 04:52:10;;;;;;;14.17;8.40;;;;;;;10.01;100.00;99035.31;5109730;27;20555;-78
2023/10/01 04:54:37;;;;;;;15.30;8.67;;;;;;;9.99;100.00;99032.78;5109833;28;20209;-78
2023/10/01 04:57:04;;;;;;;14.60;8.30;;;;;;;9.98;100.00;99046.03;5110091;28;20209;-78
2023/10/01 04:59:31;;;;;;;18.50;8.63;;;;;;;9.99;100.00;99053.03;5109943;28;20213;-78
2023/10/01 05:01:58;;;;;;;17.70;8.70;;;;;;;10.02;100.00;99058.13;5109778;28;20226;-78
2023/10/01 05:04:27;;;;;;;15.00;8.20;;;;;;;10.02;100.00;99052.84;5109917;28;20650;-78
2023/10/01 05:07:04;;;;;;;15.80;8.90;;;;;;;10.03;100.00;99065.16;5109736;28;20203;-78
2023/10/01 05:09:33;;;;;;;15.83;8.50;;;;;;;10.01;100.00;99067.88;5109822;28;20589;-78
2023/10/01 05:12:01;;;;;;;18.30;8.67;;;;;;;9.99;100.00;99080.31;5109399;28;20241;-78
2023/10/01 05:14:28;;;;;;;18.20;9.60;;;;;;;10.00;100.00;99076.72;5109898;28;20208;-78
2023/10/01 05:16:54;;;;;;;15.00;9.13;;;;;;;10.00;100.00;99081.13;5109319;28;20216;-78
2023/10/01 05:19:23;;;;;;;15.97;8.97;;;;;;;9.98;100.00;99077.75;5110031;28;20218;-78
2023/10/01 05:21:50;;;;;;;15.93;8.50;;;;;;;10.03;100.00;99079.22;5109311;28;20230;-78
2023/10/01 05:24:34;;;;;;;14.67;8.50;;;;;;;10.02;100.00;99084.53;5109233;28;20212;-78
2023/10/01 05:27:02;;;;;;;13.73;7.47;;;;;;;10.05;100.00;99090.59;5109985;28;20213;-78
2023/10/01 05:29:31;;;;;;;14.77;8.13;;;;;;;10.03;100.00;99087.16;5109833;28;20203;-78
2023/10/01 05:31:57;;;;;;;18.00;8.60;;;;;;;10.06;100.00;99091.41;5109495;28;20317;-78
2023/10/01 05:34:25;;;;;;;14.73;8.50;;;;;;;10.06;100.00;99091.41;5109355;28;20312;-78
2023/10/01 05:36:52;;;;;;;15.10;8.67;;;;;;;10.07;100.00;99087.84;5109375;28;20202;-78
2023/10/01 05:39:23;;;;;;;15.63;8.43;;;;;;;10.09;100.00;99086.00;5110494;28;20213;-78
2023/10/01 05:41:49;;;;;;;14.27;8.40;;;;;;;10.10;100.00;99082.41;5109507;28;20224;-78
2023/10/01 05:44:18;;;;;;;15.20;8.63;;;;;;;10.17;100.00;99097.00;5109756;28;20577;-78
2023/10/01 05:46:46;;;;;;;12.93;7.20;;;;;;;10.18;100.00;99096.06;5109541;28;20208;-78
2023/10/01 05:49:13;;;;;;;13.33;7.57;;;;;;;10.24;100.00;99101.03;5109517;28;20206;-78
2023/10/01 05:51:44;;;;;;;14.20;7.77;;;;;;;10.32;100.00;99106.75;5109086;28;20227;-78
2023/10/01 05:54:18;;;;;;;13.80;8.27;;;;;;;10.30;100.00;99103.34;5109356;28;20206;-78
2023/10/01 05:56:47;;;;;;;13.07;7.30;;;;;;;10.34;100.00;99107.56;5109528;28;20199;-78
2023/10/01 05:59:14;;;;;;;15.87;7.87;;;;;;;10.38;100.00;99109.06;5109152;28;20674;-78
2023/10/01 06:01:43;;;;;;;13.27;8.13;;;;;;;10.43;100.00;99107.03;5105233;28;20550;-78
2023/10/01 06:04:12;;;;;;;15.87;8.63;;;;;;;10.51;100.00;99110.16;5095727;28;20337;-79
2023/10/01 06:06:42;;;;;;;19.07;8.67;;;;;;;10.57;100.00;99120.38;5097148;28;20733;-79
2023/10/01 06:09:14;;;;;;;11.93;7.63;;;;;;;10.64;100.00;99121.78;5096975;28;20215;-78
2023/10/01 06:11:48;;;;;;;12.63;7.17;;;;;;;10.71;100.00;99120.50;5097126;28;20260;-79
2023/10/01 06:17:10;;;;;;;13.60;7.40;;;;;;;10.85;100.00;99126.75;5091668;27;20556;-78
2023/10/01 06:19:40;;;;;;;12.83;7.50;;;;;;;10.92;100.00;99129.91;5091085;28;20689;-78
2023/10/01 06:22:13;;;;;;;17.27;7.73;;;;;;;10.92;100.00;99127.25;5090487;28;20228;-78
2023/10/01 06:24:42;;;;;;;12.40;7.73;;;;;;;10.95;100.00;99127.09;5088922;28;20207;-78
2023/10/01 06:27:11;;;;;;;11.90;6.83;;;;;;;10.97;100.00;99130.50;5089013;28;20234;-78
2023/10/01 06:29:49;;;;;;;13.00;7.50;;;;;;;10.96;100.00;99118.22;5088939;28;20566;-80
2023/10/01 06:32:18;;;;;;;13.47;7.83;;;;;;;11.01;100.00;99117.03;5088855;28;20229;-80
2023/10/01 06:34:45;;;;;;;12.60;7.73;;;;;;;11.03;100.00;99119.59;5089034;28;20206;-77
2023/10/01 06:37:12;;;;;;;13.37;7.47;;;;;;;11.07;100.00;99116.69;5088840;28;20290;-78
2023/10/01 06:39:41;;;;;;;13.07;7.27;;;;;;;11.10;100.00;99126.25;5088841;28;20388;-78
2023/10/01 06:42:20;;;;;;;14.20;7.70;;;;;;;11.09;100.00;99119.25;5088024;28;20322;-79
2023/10/01 06:44:48;;;;;;;13.97;7.57;;;;;;;11.18;100.00;99124.88;5088371;28;20301;-77
2023/10/01 06:47:16;;;;;;;14.17;8.13;;;;;;;11.29;100.00;99124.28;5088285;28;20217;-76
2023/10/01 06:49:57;;;;;;;11.93;7.23;;;;;;;11.37;100.00;99127.38;5088262;28;20209;-76
2023/10/01 06:52:24;;;;;;;14.13;8.07;;;;;;;11.45;100.00;99133.06;5088207;28;20431;-79
2023/10/01 06:54:52;;;;;;;15.10;7.73;;;;;;;11.56;100.00;99131.50;5087085;28;20216;-77
2023/10/01 06:57:21;;;;;;;12.17;7.70;;;;;;;11.64;100.00;99144.34;5088313;28;20295;-77
2023/10/01 06:59:48;;;;;;;15.67;8.10;;;;;;;11.73;100.00;99139.38;5088240;28;20204;-77
2023/10/01 07:02:15;;;;;;;11.27;7.23;;;;;;;11.82;100.00;99132.69;5088203;28;20230;-77
2023/10/01 07:04:55;;;;;;;13.73;8.37;;;;;;;11.89;100.00;99139.31;5088337;28;20211;-79
2023/10/01 07:07:23;;;;;;;11.67;7.00;;;;;;;11.99;100.00;99137.84;5089016;28;20217;-78
2023/10/01 07:09:51;;;;;;;12.30;7.50;;;;;;;12.10;100.00;99138.06;5088716;28;20225;-79
2023/10/01 07:12:18;;;;;;;14.83;8.37;;;;;;;12.22;100.00;99142.66;5088073;28;20228;-79
2023/10/01 07:14:45;;;;;;;11.60;7.37;;;;;;;12.33;100.00;99145.47;5088418;28;20220;-77
2023/10/01 07:17:14;;;;;;;11.73;7.03;;;;;;;12.43;100.00;99146.63;5088254;28;20697;-76
2023/10/01 07:19:43;;;;;;;13.83;7.17;;;;;;;12.55;100.00;99145.91;5088140;28;20588;-77
2023/10/01 07:22:13;;;;;;;12.43;7.82;;;;;;;12.65;100.00;99153.19;5087062;28;20425;-78
2023/10/01 07:24:40;;;;;;;12.63;7.37;;;;;;;12.82;100.00;99149.50;5087463;28;20217;-78
2023/10/01 07:27:07;;;;;;;12.27;7.60;;;;;;;12.82;100.00;99154.78;5082037;28;20200;-77
2023/10/01 07:29:34;;;;;;;12.13;6.87;;;;;;;12.93;100.00;99147.03;5073557;28;20710;-77
2023/10/01 07:32:03;;;;;;;11.90;7.10;;;;;;;12.98;100.00;99163.56;5072871;28;20238;-76
2023/10/01 07:34:31;;;;;;;12.50;7.17;;;;;;;13.11;100.00;99161.81;5073507;28;20198;-77
2023/10/01 07:37:00;;;;;;;13.63;7.93;;;;;;;13.24;100.00;99168.06;5073854;28;20326;-77
2023/10/01 07:39:32;;;;;;;10.70;6.73;;;;;;;13.37;100.00;99166.31;5074123;28;20215;-79
2023/10/01 07:41:59;;;;;;;13.40;6.23;;;;;;;13.43;100.00;99164.13;5075256;28;20229;-77
2023/10/01 07:44:27;;;;;;;12.87;7.90;;;;;;;13.57;100.00;99163.25;5075094;28;20209;-77
2023/10/01 07:46:53;;;;;;;11.37;6.80;;;;;;;13.69;100.00;99175.75;5074997;28;20577;-78
2023/10/01 07:49:21;;;;;;;18.10;7.63;;;;;;;13.77;100.00;99174.28;5074978;28;20207;-77
2023/10/01 07:51:48;;;;;;;12.37;6.73;;;;;;;13.85;100.00;99176.44;5073868;28;20261;-79
2023/10/01 07:54:22;;;;;;;10.57;6.17;;;;;;;13.93;100.00;99172.31;5073651;28;20260;-79
2023/10/01 07:56:51;;;;;;;10.37;6.80;;;;;;;14.10;100.00;99173.84;5073673;28;20237;-79
2023/10/01 07:59:29;;;;;;;11.87;6.90;;;;;;;14.26;100.00;99169.25;5073735;28;20200;-76
2023/10/01 08:02:13;;;;;;;13.87;7.20;;;;;;;14.34;100.00;99165.09;5071004;28;20244;-77
2023/10/01 08:04:51;;;;;;;11.73;6.43;;;;;;;14.44;100.00;99165.34;5073123;28;20603;-79
2023/10/01 08:07:22;;;;;;;9.30;6.10;;;;;;;14.57;100.00;99166.19;5073132;28;20236;-77
2023/10/01 08:09:52;;;;;;;14.13;6.90;;;;;;;14.68;100.00;99166.31;5072657;28;20201;-77
2023/10/01 08:12:19;;;;;;;13.87;7.07;;;;;;;14.79;100.00;99171.75;5072118;28;20241;-77
2023/10/01 08:15:15;;;;;;;10.60;6.00;;;;;;;14.96;100.00;99163.44;5072628;28;20220;-77
2023/10/01 08:17:34;;;;;;;11.43;6.27;;;;;;;15.05;100.00;99166.28;5072474;28;20245;-77
2023/10/01 08:20:14;;;;;;;12.53;6.87;;;;;;;15.19;100.00;99162.63;5072494;28;20211;-77
2023/10/01 08:22:44;;;;;;;11.13;6.10;;;;;;;15.26;100.00;99161.22;5072348;28;20237;-77
2023/10/01 08:25:14;;;;;;;10.17;5.80;;;;;;;15.39;100.00;99162.94;5072807;28;20204;-77
2023/10/01 08:28:26;;;;;;;12.07;5.97;;;;;;;15.51;100.00;99162.03;5072433;28;20207;-77
2023/10/01 08:30:38;;;;;;;10.33;5.77;;;;;;;15.65;100.00;99158.38;5072163;28;20264;-78
2023/10/01 08:33:18;;;;;;;11.73;5.90;;;;;;;15.74;100.00;99161.22;5072828;28;20213;-78
2023/10/01 08:35:56;;;;;;;9.33;5.70;;;;;;;15.85;100.00;99166.59;5075293;28;20227;-79
2023/10/01 08:38:23;;;;;;;8.73;5.37;;;;;;;15.91;100.00;99163.50;5075014;28;20271;-79
2023/10/01 08:40:54;;;;;;;10.43;5.57;;;;;;;15.96;100.00;99149.81;5075007;28;20261;-81
2023/10/01 08:43:25;;;;;;;11.43;6.73;;;;;;;16.11;100.00;99152.16;5075181;28;20208;-79
2023/10/01 08:45:53;;;;;;;8.67;5.20;;;;;;;16.16;100.00;99148.19;5075116;28;20215;-79
2023/10/01 08:48:19;;;;;;;11.53;5.97;;;;;;;16.29;99.03;99146.31;5074816;28;20222;-79
2023/10/01 08:50:47;;;;;;;8.10;5.43;;;;;;;16.42;97.63;99151.56;5074576;28;20227;-81
2023/10/01 08:53:16;;;;;;;10.97;6.20;;;;;;;16.48;97.45;99146.63;5079826;28;20223;-84
2023/10/01 08:58:26;;;;;;;10.83;5.83;;;;;;;16.74;94.76;99148.13;5081487;28;20446;-84
2023/10/01 09:00:56;;;;;;;11.70;6.00;;;;;;;16.91;94.40;99134.28;5082475;28;20227;-84
2023/10/01 09:03:28;;;;;;;9.40;5.50;;;;;;;16.99;93.14;99142.53;5081912;28;20696;-84
2023/10/01 09:06:03;;;;;;;9.73;5.83;;;;;;;17.06;90.39;99133.06;5080244;28;20286;-83
2023/10/01 09:08:31;;;;;;;10.10;5.93;;;;;;;17.12;89.48;99132.56;5079547;28;20214;-83
2023/10/01 09:10:59;;;;;;;9.13;5.00;;;;;;;17.20;90.60;99140.81;5077767;28;20227;-82
2023/10/01 09:13:30;;;;;;;8.07;4.90;;;;;;;17.25;89.52;99141.31;5077694;28;20237;-83
2023/10/01 09:16:10;;;;;;;9.02;5.30;;;;;;;17.32;89.13;99134.50;5077445;28;20529;-84
2023/10/01 09:19:01;;;;;;;7.63;5.17;;;;;;;17.57;89.18;99128.91;5076337;28;20239;-84
2023/10/01 09:21:31;;;;;;;10.20;5.53;;;;;;;17.56;86.50;99124.50;5076503;28;20227;-81
2023/10/01 09:24:11;;;;;;;8.43;5.20;;;;;;;17.61;86.31;99130.34;5078746;28;20207;-83
2023/10/01 09:26:42;;;;;;;9.50;5.37;;;;;;;17.71;84.78;99125.94;5078971;28;20233;-83
2023/10/01 09:29:21;;;;;;;8.57;5.17;;;;;;;17.75;84.19;99122.03;5080157;28;20275;-84
2023/10/01 09:31:59;;;;;;;8.63;4.90;;;;;;;17.79;84.38;99123.47;5078749;28;20233;-82
2023/10/01 09:34:33;;;;;;;8.90;5.50;;;;;;;17.85;83.71;99117.63;5078548;28;20199;-84
2023/10/01 09:37:02;;;;;;;7.77;4.90;;;;;;;17.91;82.60;99119.78;5078589;28;20702;-84
2023/10/01 09:39:38;;;;;;;7.00;4.87;;;;;;;18.00;82.36;99108.34;5078459;28;20217;-86
2023/10/01 09:42:22;;;;;;;8.77;4.80;;;;;;;18.03;82.62;99116.09;5078678;28;20242;-83
2023/10/01 09:44:52;;;;;;;7.17;4.57;;;;;;;18.21;81.93;99116.34;5080245;28;20229;-83
2023/10/01 09:47:23;;;;;;;8.83;4.80;;;;;;;18.42;81.40;99122.63;5080818;28;20211;-84
2023/10/01 09:49:52;;;;;;;7.93;5.00;;;;;;;18.47;79.26;99110.53;5081150;28;20437;-83
2023/10/01 09:52:27;;;;;;;8.87;4.73;;;;;;;18.54;78.40;99095.63;5077860;28;20273;-83
2023/10/01 09:55:01;;;;;;;8.75;5.22;;;;;;;18.74;78.83;99102.81;5076195;28;20426;-83
2023/10/01 09:57:34;;;;;;;11.63;4.57;;;;;;;18.87;77.31;99095.38;5075006;28;20356;-80
2023/10/01 10:00:14;;;;;;;8.03;4.80;;;;;;;18.92;76.44;99085.13;5075259;28;20203;-81
2023/10/01 10:02:51;;;;;;;8.00;4.53;;;;;;;18.93;75.46;99084.13;5074640;28;20310;-80
2023/10/01 10:05:24;;;;;;;7.53;4.80;;;;;;;18.99;74.99;99086.28;5074950;28;20584;-81
2023/10/01 10:07:52;;;;;;;8.23;4.73;;;;;;;19.10;74.35;99082.63;5075842;28;20203;-81
2023/10/01 10:10:24;;;;;;;8.83;4.60;;;;;;;19.15;72.48;99065.16;5076102;28;20212;-80
2023/10/01 10:12:53;;;;;;;7.73;4.43;;;;;;;19.24;72.64;99064.38;5074916;28;20215;-80
2023/10/01 10:15:55;;;;;;;7.23;4.30;;;;;;;19.36;70.99;99057.06;5074436;28;20215;-80
2023/10/01 10:18:23;;;;;;;6.87;4.20;;;;;;;19.45;71.45;99057.06;5074752;28;20214;-81
2023/10/01 10:20:59;;;;;;;6.17;4.20;;;;;;;19.52;69.45;99039.44;5075209;28;20253;-80
2023/10/01 10:23:30;;;;;;;6.77;3.97;;;;;;;19.63;68.46;99039.31;5074766;28;20210;-81
2023/10/01 10:26:13;;;;;;;7.93;4.70;;;;;;;19.87;65.45;99026.31;5075436;28;20380;-80
2023/10/01 10:28:54;;;;;;;8.57;4.57;;;;;;;19.92;65.18;99017.81;5075332;28;20249;-80
2023/10/01 10:31:32;;;;;;;7.10;4.17;;;;;;;19.97;65.64;99032.53;5074542;28;20226;-80
2023/10/01 10:34:24;;;;;;;7.87;4.53;;;;;;;20.03;63.95;99015.84;5074890;28;20260;-80
2023/10/01 10:36:58;;;;;;;7.63;4.37;;;;;;;20.01;63.87;99015.16;5074802;28;20234;-80
2023/10/01 10:43:18;;;;;;;7.67;4.13;;;;;;;20.06;63.96;99018.25;5074369;28;20332;-80
2023/10/01 10:46:00;;;;;;;7.40;4.17;;;;;;;20.22;62.52;99005.09;5075133;28;20532;-80
2023/10/01 10:49:03;;;;;;;8.33;4.30;;;;;;;20.27;63.12;99012.72;5074770;28;20211;-80
2023/10/01 10:51:45;;;;;;;7.67;4.63;;;;;;;20.36;64.39;99023.44;5072072;28;20265;-80
2023/10/01 10:54:16;;;;;;;10.33;5.10;;;;;;;20.40;63.30;99019.47;5074230;28;20643;-80
2023/10/01 10:56:44;;;;;;;9.23;5.00;;;;;;;20.37;62.19;99014.38;5074556;28;20231;-80
2023/10/01 10:59:13;;;;;;;7.33;4.33;;;;;;;20.39;62.49;99015.09;5075291;28;20310;-80
2023/10/01 11:01:44;;;;;;;7.70;4.20;;;;;;;20.46;62.98;99018.88;5074139;28;20237;-80
2023/10/01 11:04:13;;;;;;;10.40;4.97;;;;;;;20.58;62.30;99017.72;5078780;28;20282;-80
2023/10/01 11:06:43;;;;;;;8.23;4.53;;;;;;;20.72;61.42;99014.53;5078565;28;20210;-80
2023/10/01 11:09:25;;;;;;;8.30;4.40;;;;;;;20.73;61.07;99010.03;5078591;28;20219;-80
2023/10/01 11:11:52;;;;;;;8.93;4.63;;;;;;;20.95;60.61;99010.50;5078758;28;20231;-80
2023/10/01 11:14:20;;;;;;;8.27;4.97;;;;;;;20.97;59.65;98995.06;5078610;28;20203;-80
2023/10/01 11:16:48;;;;;;;8.03;4.67;;;;;;;20.95;60.69;99004.28;5078153;28;20255;-80
2023/10/01 11:19:17;;;;;;;8.27;4.90;;;;;;;21.13;59.88;98997.97;5077967;28;20222;-80
2023/10/01 11:21:55;;;;;;;9.10;4.97;;;;;;;20.96;58.74;98992.56;5077774;28;20235;-80
2023/10/01 11:24:25;;;;;;;10.00;5.40;;;;;;;21.08;59.33;99000.25;5077793;28;20213;-80
2023/10/01 11:27:14;;;;;;;8.53;5.03;;;;;;;21.10;59.46;98998.25;5077938;28;20570;-80
2023/10/01 11:29:41;;;;;;;8.93;4.73;;;;;;;21.20;58.06;98993.66;5077563;28;20206;-80
2023/10/01 11:32:10;;;;;;;9.53;5.23;;;;;;;21.23;58.09;98977.25;5077276;28;20227;-80
2023/10/01 11:34:46;;;;;;;8.67;4.50;;;;;;;21.14;59.18;98979.97;5077709;28;20643;-80
2023/10/01 11:37:19;;;;;;;10.83;4.97;;;;;;;21.28;58.33;98972.22;5077889;28;20646;-80
2023/10/01 11:39:52;;;;;;;9.83;4.80;;;;;;;21.19;58.37;98975.84;5077186;28;20210;-80
2023/10/01 11:42:29;;;;;;;8.97;4.33;;;;;;;21.08;59.15;98984.13;5077227;28;20253;-80
2023/10/01 11:44:55;;;;;;;8.30;4.73;;;;;;;21.25;58.51;98971.69;5077316;28;20724;-80
2023/10/01 11:47:33;;;;;;;9.80;5.27;;;;;;;21.32;58.60;98967.38;5077368;28;20218;-80
2023/10/01 11:50:08;;;;;;;8.20;4.73;;;;;;;21.35;59.12;98965.28;5077792;28;20258;-80
2023/10/01 11:52:35;;;;;;;8.37;4.40;;;;;;;21.35;58.59;98957.19;5076845;28;20225;-80
2023/10/01 11:55:16;;;;;;;7.97;4.73;;;;;;;21.41;59.18;98967.34;5077141;28;20219;-80
2023/10/01 11:57:51;;;;;;;7.80;4.80;;;;;;;21.56;58.15;98949.66;5076972;28;20231;-80
2023/10/01 12:00:32;;;;;;;7.70;4.77;;;;;;;21.60;58.00;98959.13;5077204;28;20210;-80
2023/10/01 12:02:59;;;;;;;8.20;4.83;;;;;;;21.63;57.61;98941.81;5076499;28;20701;-80
2023/10/01 12:05:38;;;;;;;9.87;5.03;;;;;;;21.60;58.16;98953.72;5077091;28;20630;-83